createdAt,value
2018-03-21T00:00:57.966Z,1018.2
2018-03-21T00:01:59.744Z,1018.3
2018-03-21T00:03:01.527Z,1018.3
2018-03-21T00:04:03.030Z,1018.3
2018-03-21T00:05:04.769Z,1018.3
2018-03-21T00:06:06.298Z,1018.3
2018-03-21T00:07:08.118Z,1018.2
2018-03-21T00:08:09.733Z,1018.3
2018-03-21T00:09:11.589Z,1018.3
2018-03-21T00:10:13.057Z,1018.3
2018-03-21T00:11:14.744Z,1018.3
2018-03-21T00:12:16.554Z,1018.3
2018-03-21T00:13:18.295Z,1018.3
2018-03-21T00:14:20.100Z,1018.2
2018-03-21T00:15:21.841Z,1018.3
2018-03-21T00:16:23.308Z,1018.3
2018-03-21T00:17:24.975Z,1018.3
2018-03-21T00:18:26.579Z,1018.3
2018-03-21T00:19:28.315Z,1018.3
2018-03-21T00:20:30.100Z,1018.3
2018-03-21T00:21:31.812Z,1018.2
2018-03-21T00:22:33.512Z,1018.3
2018-03-21T00:23:35.194Z,1018.3
2018-03-21T00:24:37.047Z,1018.3
2018-03-21T00:25:38.652Z,1018.4
2018-03-21T00:26:40.337Z,1018.4
2018-03-21T00:27:42.071Z,1018.4
2018-03-21T00:28:43.864Z,1018.4
2018-03-21T00:29:45.613Z,1018.4
2018-03-21T00:30:47.185Z,1018.4
2018-03-21T00:31:48.650Z,1018.4
2018-03-21T00:32:50.349Z,1018.4
2018-03-21T00:33:51.892Z,1018.4
2018-03-21T00:34:53.516Z,1018.4
2018-03-21T00:35:55.177Z,1018.5
2018-03-21T00:36:56.952Z,1018.5
2018-03-21T00:37:58.703Z,1018.5
2018-03-21T00:39:00.440Z,1018.4
2018-03-21T00:40:02.169Z,1018.5
2018-03-21T00:41:03.857Z,1018.5
2018-03-21T00:42:05.556Z,1018.5
2018-03-21T00:43:07.243Z,1018.5
2018-03-21T00:44:08.967Z,1018.5
2018-03-21T00:45:10.730Z,1018.5
2018-03-21T00:46:12.466Z,1018.6
2018-03-21T00:47:13.986Z,1018.6
2018-03-21T00:48:15.691Z,1018.6
2018-03-21T00:49:17.510Z,1018.6
2018-03-21T00:50:19.094Z,1018.6
2018-03-21T00:51:20.809Z,1018.6
2018-03-21T00:52:22.410Z,1018.6
2018-03-21T00:53:23.900Z,1018.6
2018-03-21T00:54:25.358Z,1018.6
2018-03-21T00:55:27.055Z,1018.6
2018-03-21T00:56:28.565Z,1018.6
2018-03-21T00:57:30.015Z,1018.6
2018-03-21T00:58:31.822Z,1018.6
2018-03-21T00:59:33.550Z,1018.6
2018-03-21T01:00:35.226Z,1018.6
2018-03-21T01:01:37.063Z,1018.6
2018-03-21T01:02:38.806Z,1018.6
2018-03-21T01:03:40.532Z,1018.5
2018-03-21T01:04:42.240Z,1018.6
2018-03-21T01:05:43.957Z,1018.6
2018-03-21T01:06:45.696Z,1018.6
2018-03-21T01:07:47.221Z,1018.6
2018-03-21T01:08:48.890Z,1018.6
2018-03-21T01:09:50.692Z,1018.6
2018-03-21T01:10:52.460Z,1018.6
2018-03-21T01:11:54.145Z,1018.6
2018-03-21T01:12:55.874Z,1018.6
2018-03-21T01:13:57.361Z,1018.6
2018-03-21T01:14:59.116Z,1018.6
2018-03-21T01:16:00.879Z,1018.6
2018-03-21T01:17:02.423Z,1018.6
2018-03-21T01:18:04.020Z,1018.6
2018-03-21T01:19:05.703Z,1018.6
2018-03-21T01:20:07.470Z,1018.6
2018-03-21T01:21:09.222Z,1018.6
2018-03-21T01:22:10.935Z,1018.6
2018-03-21T01:23:12.700Z,1018.6
2018-03-21T01:24:14.454Z,1018.6
2018-03-21T01:25:16.172Z,1018.6
2018-03-21T01:26:17.858Z,1018.6
2018-03-21T01:27:19.554Z,1018.6
2018-03-21T01:28:21.298Z,1018.6
2018-03-21T01:29:23.027Z,1018.5
2018-03-21T01:30:24.780Z,1018.6
2018-03-21T01:31:26.399Z,1018.6
2018-03-21T01:32:27.924Z,1018.5
2018-03-21T01:33:29.578Z,1018.6
2018-03-21T01:34:31.318Z,1018.5
2018-03-21T01:35:32.799Z,1018.5
2018-03-21T01:36:34.327Z,1018.6
2018-03-21T01:37:36.025Z,1018.5
2018-03-21T01:38:37.755Z,1018.5
2018-03-21T01:39:39.432Z,1018.5
2018-03-21T01:40:41.008Z,1018.5
2018-03-21T01:41:42.611Z,1018.5
2018-03-21T01:42:44.165Z,1018.5
2018-03-21T01:43:45.884Z,1018.5
2018-03-21T01:44:47.618Z,1018.5
2018-03-21T01:45:49.125Z,1018.5
2018-03-21T01:46:50.653Z,1018.5
2018-03-21T01:47:52.185Z,1018.5
2018-03-21T01:48:53.685Z,1018.5
2018-03-21T01:49:55.460Z,1018.5
2018-03-21T01:50:57.227Z,1018.5
2018-03-21T01:51:58.850Z,1018.5
2018-03-21T01:53:00.523Z,1018.6
2018-03-21T01:54:02.225Z,1018.5
2018-03-21T01:55:03.968Z,1018.6
2018-03-21T01:56:05.708Z,1018.6
2018-03-21T01:57:07.449Z,1018.6
2018-03-21T01:58:08.975Z,1018.6
2018-03-21T01:59:10.484Z,1018.6
2018-03-21T02:00:12.131Z,1018.6
2018-03-21T02:01:13.829Z,1018.6
2018-03-21T02:02:15.625Z,1018.6
2018-03-21T02:03:17.171Z,1018.6
2018-03-21T02:04:18.648Z,1018.6
2018-03-21T02:05:20.213Z,1018.6
2018-03-21T02:06:21.924Z,1018.6
2018-03-21T02:07:23.485Z,1018.6
2018-03-21T02:08:25.038Z,1018.6
2018-03-21T02:09:26.702Z,1018.5
2018-03-21T02:10:28.238Z,1018.6
2018-03-21T02:11:30.019Z,1018.5
2018-03-21T02:12:31.750Z,1018.5
2018-03-21T02:13:33.428Z,1018.5
2018-03-21T02:14:35.145Z,1018.5
2018-03-21T02:15:36.875Z,1018.5
2018-03-21T02:16:38.566Z,1018.6
2018-03-21T02:17:40.364Z,1018.5
2018-03-21T02:18:42.069Z,1018.5
2018-03-21T02:19:43.692Z,1018.5
2018-03-21T02:20:45.180Z,1018.5
2018-03-21T02:21:46.655Z,1018.5
2018-03-21T02:22:48.387Z,1018.5
2018-03-21T02:23:50.163Z,1018.5
2018-03-21T02:24:51.953Z,1018.5
2018-03-21T02:25:53.734Z,1018.5
2018-03-21T02:26:55.265Z,1018.5
2018-03-21T02:27:57.026Z,1018.5
2018-03-21T02:28:58.730Z,1018.5
2018-03-21T02:30:00.509Z,1018.5
2018-03-21T02:31:02.286Z,1018.5
2018-03-21T02:32:03.811Z,1018.6
2018-03-21T02:33:05.501Z,1018.5
2018-03-21T02:34:07.227Z,1018.5
2018-03-21T02:35:08.960Z,1018.5
2018-03-21T02:36:10.489Z,1018.5
2018-03-21T02:37:12.034Z,1018.6
2018-03-21T02:38:13.650Z,1018.5
2018-03-21T02:39:15.307Z,1018.6
2018-03-21T02:40:17.083Z,1018.6
2018-03-21T02:41:18.830Z,1018.6
2018-03-21T02:42:20.294Z,1018.6
2018-03-21T02:43:21.890Z,1018.6
2018-03-21T02:44:23.628Z,1018.6
2018-03-21T02:45:25.091Z,1018.6
2018-03-21T02:46:27.675Z,1018.6
2018-03-21T02:47:29.470Z,1018.6
2018-03-21T02:48:31.228Z,1018.6
2018-03-21T02:49:32.708Z,1018.6
2018-03-21T02:50:34.169Z,1018.6
2018-03-21T02:51:35.880Z,1018.6
2018-03-21T02:52:37.622Z,1018.6
2018-03-21T02:53:39.350Z,1018.6
2018-03-21T02:54:41.020Z,1018.6
2018-03-21T02:55:42.781Z,1018.6
2018-03-21T02:56:44.456Z,1018.6
2018-03-21T02:57:46.180Z,1018.6
2018-03-21T02:58:47.868Z,1018.6
2018-03-21T02:59:49.419Z,1018.6
2018-03-21T03:00:51.195Z,1018.6
2018-03-21T03:01:52.916Z,1018.6
2018-03-21T03:02:54.408Z,1018.6
2018-03-21T03:03:55.897Z,1018.6
2018-03-21T03:04:57.662Z,1018.6
2018-03-21T03:05:59.361Z,1018.6
2018-03-21T03:07:01.087Z,1018.6
2018-03-21T03:08:02.635Z,1018.6
2018-03-21T03:09:04.135Z,1018.6
2018-03-21T03:10:05.713Z,1018.5
2018-03-21T03:11:07.386Z,1018.6
2018-03-21T03:12:09.091Z,1018.6
2018-03-21T03:13:10.598Z,1018.6
2018-03-21T03:14:12.301Z,1018.6
2018-03-21T03:15:13.797Z,1018.6
2018-03-21T03:16:15.347Z,1018.6
2018-03-21T03:17:17.064Z,1018.6
2018-03-21T03:18:18.602Z,1018.6
2018-03-21T03:19:20.326Z,1018.6
2018-03-21T03:20:21.997Z,1018.6
2018-03-21T03:21:23.481Z,1018.6
2018-03-21T03:22:24.984Z,1018.6
2018-03-21T03:23:27.546Z,1018.6
2018-03-21T03:24:29.221Z,1018.6
2018-03-21T03:25:31.034Z,1018.6
2018-03-21T03:26:32.694Z,1018.6
2018-03-21T03:27:34.415Z,1018.6
2018-03-21T03:28:36.216Z,1018.7
2018-03-21T03:29:37.793Z,1018.6
2018-03-21T03:30:39.498Z,1018.6
2018-03-21T03:31:41.280Z,1018.6
2018-03-21T03:32:42.930Z,1018.7
2018-03-21T03:33:44.676Z,1018.6
2018-03-21T03:34:46.388Z,1018.6
2018-03-21T03:35:48.091Z,1018.6
2018-03-21T03:36:49.800Z,1018.7
2018-03-21T03:37:51.383Z,1018.7
2018-03-21T03:38:52.926Z,1018.7
2018-03-21T03:39:54.643Z,1018.7
2018-03-21T03:40:57.051Z,1018.7
2018-03-21T03:41:58.547Z,1018.8
2018-03-21T03:43:00.084Z,1018.7
2018-03-21T03:44:01.817Z,1018.7
2018-03-21T03:45:03.331Z,1018.8
2018-03-21T03:46:05.113Z,1018.8
2018-03-21T03:47:06.830Z,1018.8
2018-03-21T03:48:08.683Z,1018.8
2018-03-21T03:49:10.318Z,1018.8
2018-03-21T03:50:11.886Z,1018.8
2018-03-21T03:51:13.519Z,1018.8
2018-03-21T03:52:15.012Z,1018.8
2018-03-21T03:53:16.751Z,1018.7
2018-03-21T03:54:18.482Z,1018.8
2018-03-21T03:55:20.304Z,1018.7
2018-03-21T03:56:22.026Z,1018.7
2018-03-21T03:57:23.801Z,1018.7
2018-03-21T03:58:25.640Z,1018.7
2018-03-21T03:59:28.208Z,1018.7
2018-03-21T04:00:29.865Z,1018.7
2018-03-21T04:01:31.624Z,1018.7
2018-03-21T04:02:33.417Z,1018.8
2018-03-21T04:03:35.134Z,1018.8
2018-03-21T04:04:36.865Z,1018.7
2018-03-21T04:05:38.629Z,1018.8
2018-03-21T04:06:40.292Z,1018.8
2018-03-21T04:07:42.099Z,1018.8
2018-03-21T04:08:43.787Z,1018.7
2018-03-21T04:09:45.620Z,1018.7
2018-03-21T04:10:47.431Z,1018.8
2018-03-21T04:11:49.158Z,1018.8
2018-03-21T04:12:50.770Z,1018.7
2018-03-21T04:13:52.430Z,1018.8
2018-03-21T04:14:54.155Z,1018.8
2018-03-21T04:15:55.873Z,1018.8
2018-03-21T04:16:57.432Z,1018.8
2018-03-21T04:17:59.190Z,1018.8
2018-03-21T04:19:00.909Z,1018.7
2018-03-21T04:20:02.648Z,1018.8
2018-03-21T04:21:04.359Z,1018.8
2018-03-21T04:22:06.165Z,1018.8
2018-03-21T04:23:07.765Z,1018.8
2018-03-21T04:24:09.510Z,1018.8
2018-03-21T04:25:11.314Z,1018.7
2018-03-21T04:26:12.814Z,1018.7
2018-03-21T04:27:14.570Z,1018.8
2018-03-21T04:28:16.356Z,1018.8
2018-03-21T04:29:18.066Z,1018.8
2018-03-21T04:30:19.802Z,1018.8
2018-03-21T04:31:21.516Z,1018.8
2018-03-21T04:32:23.217Z,1018.8
2018-03-21T04:33:24.707Z,1018.9
2018-03-21T04:34:26.242Z,1018.9
2018-03-21T04:35:27.791Z,1018.9
2018-03-21T04:36:29.534Z,1018.9
2018-03-21T04:37:31.103Z,1018.9
2018-03-21T04:38:32.750Z,1018.9
2018-03-21T04:39:34.533Z,1018.8
2018-03-21T04:40:36.329Z,1018.9
2018-03-21T04:41:37.982Z,1018.9
2018-03-21T04:42:39.724Z,1018.9
2018-03-21T04:43:41.457Z,1018.9
2018-03-21T04:44:43.159Z,1018.8
2018-03-21T04:45:44.922Z,1018.9
2018-03-21T04:46:46.465Z,1018.9
2018-03-21T04:47:48.002Z,1018.9
2018-03-21T04:48:49.735Z,1019.0
2018-03-21T04:49:51.242Z,1019.0
2018-03-21T04:50:52.976Z,1018.9
2018-03-21T04:51:54.746Z,1018.9
2018-03-21T04:52:56.253Z,1018.9
2018-03-21T04:53:57.783Z,1018.9
2018-03-21T04:54:59.292Z,1018.9
2018-03-21T04:56:00.824Z,1018.9
2018-03-21T04:57:02.308Z,1018.9
2018-03-21T04:58:03.984Z,1018.8
2018-03-21T04:59:05.816Z,1018.9
2018-03-21T05:00:07.578Z,1018.8
2018-03-21T05:01:09.333Z,1018.9
2018-03-21T05:02:10.885Z,1018.9
2018-03-21T05:03:12.447Z,1018.9
2018-03-21T05:04:14.156Z,1018.8
2018-03-21T05:05:15.723Z,1018.9
2018-03-21T05:06:17.436Z,1018.9
2018-03-21T05:07:19.196Z,1018.8
2018-03-21T05:08:20.975Z,1018.9
2018-03-21T05:09:22.410Z,1018.8
2018-03-21T05:10:23.913Z,1018.8
2018-03-21T05:11:25.529Z,1018.8
2018-03-21T05:12:27.308Z,1018.8
2018-03-21T05:13:29.035Z,1018.8
2018-03-21T05:14:30.586Z,1018.8
2018-03-21T05:15:32.146Z,1018.8
2018-03-21T05:16:33.862Z,1018.8
2018-03-21T05:17:35.626Z,1018.8
2018-03-21T05:18:37.340Z,1018.8
2018-03-21T05:19:38.999Z,1018.8
2018-03-21T05:20:40.736Z,1018.8
2018-03-21T05:21:42.443Z,1018.8
2018-03-21T05:22:44.156Z,1018.8
2018-03-21T05:23:45.953Z,1018.9
2018-03-21T05:24:47.705Z,1018.8
2018-03-21T05:25:49.266Z,1018.8
2018-03-21T05:26:51.085Z,1018.9
2018-03-21T05:27:52.699Z,1018.9
2018-03-21T05:28:54.210Z,1018.9
2018-03-21T05:29:55.790Z,1018.8
2018-03-21T05:30:57.306Z,1018.9
2018-03-21T05:31:58.818Z,1018.9
2018-03-21T05:33:00.682Z,1018.9
2018-03-21T05:34:02.448Z,1018.9
2018-03-21T05:35:04.161Z,1018.9
2018-03-21T05:36:05.964Z,1018.9
2018-03-21T05:37:07.602Z,1018.9
2018-03-21T05:38:09.057Z,1019.0
2018-03-21T05:39:10.633Z,1019.0
2018-03-21T05:40:12.372Z,1019.0
2018-03-21T05:41:14.088Z,1019.0
2018-03-21T05:42:15.882Z,1019.0
2018-03-21T05:43:17.552Z,1019.0
2018-03-21T05:44:19.326Z,1019.0
2018-03-21T05:45:20.893Z,1018.9
2018-03-21T05:46:22.622Z,1019.0
2018-03-21T05:47:24.319Z,1019.0
2018-03-21T05:48:26.061Z,1019.0
2018-03-21T05:49:27.624Z,1018.9
2018-03-21T05:50:29.348Z,1018.9
2018-03-21T05:51:30.958Z,1018.9
2018-03-21T05:52:32.654Z,1018.9
2018-03-21T05:53:34.357Z,1018.9
2018-03-21T05:54:36.226Z,1018.9
2018-03-21T05:55:37.752Z,1018.9
2018-03-21T05:56:39.416Z,1018.9
2018-03-21T05:57:40.947Z,1018.9
2018-03-21T05:58:42.590Z,1018.9
2018-03-21T05:59:44.308Z,1019.0
2018-03-21T06:00:45.871Z,1018.9
2018-03-21T06:01:47.594Z,1019.0
2018-03-21T06:02:49.320Z,1019.0
2018-03-21T06:03:51.130Z,1019.0
2018-03-21T06:04:52.890Z,1019.0
2018-03-21T06:05:54.562Z,1019.1
2018-03-21T06:06:56.332Z,1019.1
2018-03-21T06:07:58.084Z,1019.1
2018-03-21T06:08:59.761Z,1019.2
2018-03-21T06:10:01.540Z,1019.1
2018-03-21T06:11:03.279Z,1019.2
2018-03-21T06:12:04.751Z,1019.2
2018-03-21T06:13:06.405Z,1019.2
2018-03-21T06:14:07.872Z,1019.1
2018-03-21T06:15:09.634Z,1019.2
2018-03-21T06:16:11.434Z,1019.1
2018-03-21T06:17:13.104Z,1019.1
2018-03-21T06:18:14.799Z,1019.2
2018-03-21T06:19:16.479Z,1019.2
2018-03-21T06:20:18.198Z,1019.3
2018-03-21T06:21:19.757Z,1019.3
2018-03-21T06:22:21.298Z,1019.3
2018-03-21T06:23:23.203Z,1019.3
2018-03-21T06:24:24.935Z,1019.3
2018-03-21T06:25:26.560Z,1019.3
2018-03-21T06:26:28.243Z,1019.3
2018-03-21T06:27:29.797Z,1019.3
2018-03-21T06:28:31.484Z,1019.3
2018-03-21T06:29:32.975Z,1019.3
2018-03-21T06:30:34.751Z,1019.3
2018-03-21T06:31:36.476Z,1019.2
2018-03-21T06:32:38.243Z,1019.3
2018-03-21T06:33:40.128Z,1019.3
2018-03-21T06:34:41.989Z,1019.3
2018-03-21T06:35:43.651Z,1019.3
2018-03-21T06:36:45.155Z,1019.3
2018-03-21T06:37:46.615Z,1019.4
2018-03-21T06:38:48.079Z,1019.4
2018-03-21T06:39:49.787Z,1019.4
2018-03-21T06:40:51.451Z,1019.4
2018-03-21T06:41:52.993Z,1019.4
2018-03-21T06:42:54.448Z,1019.4
2018-03-21T06:43:56.272Z,1019.4
2018-03-21T06:44:57.945Z,1019.4
2018-03-21T06:45:59.502Z,1019.4
2018-03-21T06:47:01.201Z,1019.4
2018-03-21T06:48:02.972Z,1019.5
2018-03-21T06:49:04.716Z,1019.6
2018-03-21T06:50:06.596Z,1019.6
2018-03-21T06:51:08.683Z,1019.6
2018-03-21T06:52:10.208Z,1019.7
2018-03-21T06:53:11.907Z,1019.7
2018-03-21T06:54:13.377Z,1019.7
2018-03-21T06:55:15.111Z,1019.7
2018-03-21T06:56:16.861Z,1019.7
2018-03-21T06:57:19.000Z,1019.7
2018-03-21T06:58:20.793Z,1019.8
2018-03-21T06:59:22.726Z,1019.8
2018-03-21T07:00:24.861Z,1019.7
2018-03-21T07:01:26.927Z,1019.8
2018-03-21T07:02:29.000Z,1019.8
2018-03-21T07:03:30.680Z,1019.9
2018-03-21T07:04:32.369Z,1019.8
2018-03-21T07:05:34.163Z,1019.8
2018-03-21T07:06:35.983Z,1019.9
2018-03-21T07:07:37.746Z,1019.8
2018-03-21T07:08:39.437Z,1019.9
2018-03-21T07:09:41.224Z,1019.8
2018-03-21T07:10:42.949Z,1019.9
2018-03-21T07:11:45.204Z,1019.9
2018-03-21T07:12:46.885Z,1019.9
2018-03-21T07:13:48.590Z,1019.9
2018-03-21T07:14:50.072Z,1019.8
2018-03-21T07:15:52.232Z,1019.9
2018-03-21T07:16:53.939Z,1019.8
2018-03-21T07:17:56.091Z,1019.9
2018-03-21T07:18:57.621Z,1019.9
2018-03-21T07:19:59.299Z,1019.9
2018-03-21T07:21:01.059Z,1019.9
2018-03-21T07:22:02.654Z,1019.9
2018-03-21T07:23:04.395Z,1020.0
2018-03-21T07:24:05.868Z,1020.0
2018-03-21T07:25:07.317Z,1020.0
2018-03-21T07:26:09.172Z,1020.0
2018-03-21T07:27:10.765Z,1020.1
2018-03-21T07:28:12.499Z,1020.1
2018-03-21T07:29:14.616Z,1020.1
2018-03-21T07:30:16.162Z,1020.1
2018-03-21T07:31:17.775Z,1020.1
2018-03-21T07:32:19.747Z,1020.2
2018-03-21T07:33:21.289Z,1020.1
2018-03-21T07:34:23.329Z,1020.2
2018-03-21T07:35:25.284Z,1020.2
2018-03-21T07:36:27.228Z,1020.3
2018-03-21T07:37:28.834Z,1020.2
2018-03-21T07:38:30.467Z,1020.3
2018-03-21T07:39:32.276Z,1020.3
2018-03-21T07:40:34.285Z,1020.3
2018-03-21T07:41:36.370Z,1020.3
2018-03-21T07:42:38.206Z,1020.3
2018-03-21T07:43:39.896Z,1020.3
2018-03-21T07:44:41.525Z,1020.3
2018-03-21T07:45:43.263Z,1020.5
2018-03-21T07:46:45.387Z,1020.6
2018-03-21T07:47:47.063Z,1020.6
2018-03-21T07:48:48.912Z,1020.6
2018-03-21T07:49:50.752Z,1020.5
2018-03-21T07:50:52.523Z,1020.4
2018-03-21T07:51:54.298Z,1020.3
2018-03-21T07:52:56.147Z,1020.3
2018-03-21T07:53:57.795Z,1020.3
2018-03-21T07:54:59.270Z,1020.2
2018-03-21T07:56:01.176Z,1020.2
2018-03-21T07:57:03.039Z,1020.2
2018-03-21T07:58:04.708Z,1020.3
2018-03-21T07:59:06.495Z,1020.3
2018-03-21T08:00:08.107Z,1020.4
2018-03-21T08:01:09.627Z,1020.4
2018-03-21T08:02:11.362Z,1020.3
2018-03-21T08:03:12.843Z,1020.4
2018-03-21T08:04:14.326Z,1020.3
2018-03-21T08:05:16.058Z,1020.3
2018-03-21T08:06:17.765Z,1020.3
2018-03-21T08:07:19.534Z,1020.3
2018-03-21T08:08:21.178Z,1020.3
2018-03-21T08:09:22.792Z,1020.3
2018-03-21T08:10:24.658Z,1020.3
2018-03-21T08:11:26.212Z,1020.3
2018-03-21T08:12:27.700Z,1020.3
2018-03-21T08:13:29.236Z,1020.3
2018-03-21T08:14:31.092Z,1020.3
2018-03-21T08:15:32.503Z,1020.4
2018-03-21T08:16:34.283Z,1020.4
2018-03-21T08:17:35.806Z,1020.4
2018-03-21T08:18:37.483Z,1020.4
2018-03-21T08:19:39.272Z,1020.4
2018-03-21T08:20:41.096Z,1020.4
2018-03-21T08:21:42.622Z,1020.4
2018-03-21T08:22:44.255Z,1020.4
2018-03-21T08:23:45.840Z,1020.4
2018-03-21T08:24:47.731Z,1020.4
2018-03-21T08:25:49.195Z,1020.4
2018-03-21T08:26:51.079Z,1020.5
2018-03-21T08:27:52.514Z,1020.5
2018-03-21T08:28:54.305Z,1020.5
2018-03-21T08:29:56.093Z,1020.5
2018-03-21T08:30:58.206Z,1020.5
2018-03-21T08:31:59.774Z,1020.5
2018-03-21T08:33:01.370Z,1020.4
2018-03-21T08:34:02.968Z,1020.3
2018-03-21T08:35:04.689Z,1020.2
2018-03-21T08:36:06.368Z,1020.4
2018-03-21T08:37:08.035Z,1020.6
2018-03-21T08:38:09.971Z,1020.7
2018-03-21T08:39:11.471Z,1020.6
2018-03-21T08:40:13.486Z,1020.5
2018-03-21T08:41:15.357Z,1020.5
2018-03-21T08:42:17.224Z,1020.5
2018-03-21T08:43:18.704Z,1020.5
2018-03-21T08:44:20.482Z,1020.5
2018-03-21T08:45:22.166Z,1020.5
2018-03-21T08:46:23.999Z,1020.5
2018-03-21T08:47:25.494Z,1020.6
2018-03-21T08:48:27.073Z,1020.6
2018-03-21T08:49:28.641Z,1020.6
2018-03-21T08:50:30.129Z,1020.6
2018-03-21T08:51:32.049Z,1020.6
2018-03-21T08:52:33.857Z,1020.6
2018-03-21T08:53:35.657Z,1020.6
2018-03-21T08:54:37.301Z,1020.6
2018-03-21T08:55:39.193Z,1020.6
2018-03-21T08:56:40.723Z,1020.7
2018-03-21T08:57:42.338Z,1020.6
2018-03-21T08:58:43.796Z,1020.6
2018-03-21T08:59:45.407Z,1020.6
2018-03-21T09:00:47.226Z,1020.6
2018-03-21T09:01:48.999Z,1020.7
2018-03-21T09:02:50.638Z,1020.7
2018-03-21T09:03:52.212Z,1020.6
2018-03-21T09:04:54.060Z,1020.6
2018-03-21T09:05:55.892Z,1020.6
2018-03-21T09:06:57.440Z,1020.6
2018-03-21T09:07:59.182Z,1020.6
2018-03-21T09:09:02.892Z,1020.7
2018-03-21T09:10:04.506Z,1020.7
2018-03-21T09:11:06.363Z,1020.8
2018-03-21T09:12:08.104Z,1020.8
2018-03-21T09:13:09.678Z,1021.2
2018-03-21T09:14:11.424Z,1021.4
2018-03-21T09:15:13.154Z,1021.5
2018-03-21T09:16:14.947Z,1021.4
2018-03-21T09:17:16.522Z,1021.4
2018-03-21T09:18:18.186Z,1021.3
2018-03-21T09:19:19.680Z,1021.1
2018-03-21T09:20:21.387Z,1021.4
2018-03-21T09:21:22.911Z,1021.3
2018-03-21T09:22:24.384Z,1021.3
2018-03-21T09:23:25.915Z,1021.4
2018-03-21T09:24:27.528Z,1021.4
2018-03-21T09:25:29.296Z,1021.4
2018-03-21T09:26:30.969Z,1021.3
2018-03-21T09:27:32.807Z,1021.4
2018-03-21T09:28:34.440Z,1021.4
2018-03-21T09:29:36.042Z,1021.4
2018-03-21T09:30:37.738Z,1021.4
2018-03-21T09:31:39.581Z,1021.2
2018-03-21T09:32:41.159Z,1021.3
2018-03-21T09:33:42.746Z,1021.4
2018-03-21T09:34:44.392Z,1021.3
2018-03-21T09:35:46.183Z,1020.9
2018-03-21T09:36:47.924Z,1020.9
2018-03-21T09:37:49.763Z,1020.9
2018-03-21T09:38:51.470Z,1020.9
2018-03-21T09:39:53.084Z,1021.2
2018-03-21T09:40:54.657Z,1021.1
2018-03-21T09:41:56.230Z,1021.2
2018-03-21T09:42:57.736Z,1021.1
2018-03-21T09:43:59.500Z,1021.4
2018-03-21T09:45:01.161Z,1021.3
2018-03-21T09:46:02.789Z,1021.3
2018-03-21T09:47:04.413Z,1021.2
2018-03-21T09:48:05.945Z,1021.2
2018-03-21T09:49:07.483Z,1021.1
2018-03-21T09:50:09.342Z,1021.0
2018-03-21T09:51:10.952Z,1020.9
2018-03-21T09:52:12.549Z,1020.8
2018-03-21T09:53:14.322Z,1020.8
2018-03-21T09:54:16.107Z,1020.8
2018-03-21T09:55:17.952Z,1020.8
2018-03-21T09:56:19.548Z,1020.8
2018-03-21T09:57:21.364Z,1020.8
2018-03-21T09:58:22.923Z,1020.8
2018-03-21T09:59:24.604Z,1020.8
2018-03-21T10:00:26.448Z,1020.8
2018-03-21T10:01:27.911Z,1020.9
2018-03-21T10:02:29.646Z,1020.8
2018-03-21T10:03:31.441Z,1020.7
2018-03-21T10:04:32.989Z,1020.7
2018-03-21T10:05:34.776Z,1020.6
2018-03-21T10:06:36.316Z,1020.6
2018-03-21T10:07:38.053Z,1020.6
2018-03-21T10:08:39.698Z,1020.6
2018-03-21T10:09:41.281Z,1020.6
2018-03-21T10:10:42.852Z,1020.6
2018-03-21T10:11:44.567Z,1020.6
2018-03-21T10:12:46.194Z,1020.6
2018-03-21T10:13:47.939Z,1020.5
2018-03-21T10:14:49.675Z,1020.6
2018-03-21T10:15:51.247Z,1020.5
2018-03-21T10:16:53.094Z,1020.5
2018-03-21T10:17:54.608Z,1020.5
2018-03-21T10:18:56.266Z,1020.5
2018-03-21T10:19:57.866Z,1020.5
2018-03-21T10:20:59.620Z,1020.4
2018-03-21T10:22:01.357Z,1020.4
2018-03-21T10:23:03.064Z,1020.4
2018-03-21T10:24:04.590Z,1020.4
2018-03-21T10:25:06.341Z,1020.3
2018-03-21T10:26:08.333Z,1020.3
2018-03-21T10:27:10.070Z,1020.4
2018-03-21T10:28:11.803Z,1020.4
2018-03-21T10:29:13.630Z,1020.5
2018-03-21T10:30:15.581Z,1020.5
2018-03-21T10:31:17.436Z,1020.6
2018-03-21T10:32:19.085Z,1020.5
2018-03-21T10:33:20.827Z,1020.5
2018-03-21T10:34:22.806Z,1020.6
2018-03-21T10:35:24.451Z,1020.6
2018-03-21T10:36:26.277Z,1020.6
2018-03-21T10:37:28.046Z,1020.6
2018-03-21T10:38:29.542Z,1020.7
2018-03-21T10:39:31.401Z,1020.8
2018-03-21T10:40:33.380Z,1020.7
2018-03-21T10:41:35.135Z,1020.8
2018-03-21T10:42:36.945Z,1020.8
2018-03-21T10:43:38.743Z,1020.8
2018-03-21T10:44:40.470Z,1020.8
2018-03-21T10:45:42.251Z,1020.7
2018-03-21T10:46:43.941Z,1020.7
2018-03-21T10:47:45.824Z,1020.7
2018-03-21T10:48:47.522Z,1020.7
2018-03-21T10:49:49.355Z,1020.8
2018-03-21T10:50:51.032Z,1020.8
2018-03-21T10:51:52.783Z,1020.7
2018-03-21T10:52:54.489Z,1020.7
2018-03-21T10:53:56.305Z,1020.6
2018-03-21T10:54:57.919Z,1020.6
2018-03-21T10:55:59.630Z,1020.6
2018-03-21T10:57:01.515Z,1020.6
2018-03-21T10:58:03.202Z,1020.7
2018-03-21T10:59:04.972Z,1020.7
2018-03-21T11:00:06.702Z,1020.7
2018-03-21T11:01:08.342Z,1020.7
2018-03-21T11:02:10.098Z,1020.6
2018-03-21T11:03:11.768Z,1020.5
2018-03-21T11:04:13.546Z,1020.5
2018-03-21T11:05:15.306Z,1020.5
2018-03-21T11:06:17.130Z,1020.6
2018-03-21T11:07:18.732Z,1020.6
2018-03-21T11:08:20.412Z,1020.6
2018-03-21T11:09:22.204Z,1020.6
2018-03-21T11:10:23.814Z,1020.6
2018-03-21T11:11:25.267Z,1020.6
2018-03-21T11:12:26.889Z,1020.6
2018-03-21T11:13:28.702Z,1020.6
2018-03-21T11:14:30.453Z,1020.5
2018-03-21T11:15:32.092Z,1020.6
2018-03-21T11:16:33.769Z,1020.6
2018-03-21T11:17:35.529Z,1020.6
2018-03-21T11:18:37.334Z,1020.6
2018-03-21T11:19:39.052Z,1020.6
2018-03-21T11:20:40.810Z,1020.5
2018-03-21T11:21:42.336Z,1020.5
2018-03-21T11:22:43.933Z,1020.5
2018-03-21T11:23:45.724Z,1020.5
2018-03-21T11:24:47.489Z,1020.4
2018-03-21T11:25:49.237Z,1020.4
2018-03-21T11:26:51.129Z,1020.4
2018-03-21T11:27:52.709Z,1020.5
2018-03-21T11:28:54.454Z,1020.5
2018-03-21T11:29:56.228Z,1020.5
2018-03-21T11:30:57.941Z,1020.6
2018-03-21T11:31:59.659Z,1020.5
2018-03-21T11:33:01.459Z,1020.6
2018-03-21T11:34:03.170Z,1020.6
2018-03-21T11:35:04.744Z,1020.6
2018-03-21T11:36:06.660Z,1020.6
2018-03-21T11:37:08.536Z,1020.6
2018-03-21T11:38:10.028Z,1020.6
2018-03-21T11:39:11.830Z,1020.6
2018-03-21T11:40:13.549Z,1020.6
2018-03-21T11:41:15.216Z,1020.6
2018-03-21T11:42:17.003Z,1020.6
2018-03-21T11:43:18.888Z,1020.7
2018-03-21T11:44:20.690Z,1020.8
2018-03-21T11:45:22.467Z,1020.7
2018-03-21T11:46:24.034Z,1020.7
2018-03-21T11:47:25.808Z,1020.8
2018-03-21T11:48:27.580Z,1020.8
2018-03-21T11:49:29.338Z,1020.7
2018-03-21T11:50:31.002Z,1020.8
2018-03-21T11:51:32.806Z,1020.7
2018-03-21T11:52:34.576Z,1020.7
2018-03-21T11:53:36.433Z,1020.7
2018-03-21T11:54:38.223Z,1020.7
2018-03-21T11:55:40.174Z,1020.7
2018-03-21T11:56:41.958Z,1020.6
2018-03-21T11:57:43.544Z,1020.6
2018-03-21T11:58:45.096Z,1020.6
2018-03-21T11:59:46.880Z,1020.6
2018-03-21T12:00:48.615Z,1020.5
2018-03-21T12:01:50.545Z,1020.5
2018-03-21T12:02:52.346Z,1020.6
2018-03-21T12:03:54.073Z,1020.6
2018-03-21T12:04:55.942Z,1020.6
2018-03-21T12:05:57.743Z,1020.6
2018-03-21T12:06:59.455Z,1020.6
2018-03-21T12:08:01.188Z,1020.6
2018-03-21T12:09:03.064Z,1020.6
2018-03-21T12:10:05.106Z,1020.6
2018-03-21T12:11:06.970Z,1020.6
2018-03-21T12:12:08.696Z,1020.5
2018-03-21T12:13:10.664Z,1020.5
2018-03-21T12:14:12.227Z,1020.5
2018-03-21T12:15:13.810Z,1020.5
2018-03-21T12:16:15.769Z,1020.5
2018-03-21T12:17:17.636Z,1020.5
2018-03-21T12:18:19.150Z,1020.4
2018-03-21T12:19:21.041Z,1020.4
2018-03-21T12:20:22.697Z,1020.4
2018-03-21T12:21:24.600Z,1020.4
2018-03-21T12:22:26.466Z,1020.4
2018-03-21T12:23:28.160Z,1020.4
2018-03-21T12:24:29.796Z,1020.4
2018-03-21T12:25:31.843Z,1020.3
2018-03-21T12:26:33.510Z,1020.5
2018-03-21T12:27:35.299Z,1020.4
2018-03-21T12:28:37.109Z,1020.4
2018-03-21T12:29:38.685Z,1020.3
2018-03-21T12:30:40.162Z,1020.3
2018-03-21T12:31:41.795Z,1020.2
2018-03-21T12:32:43.436Z,1020.3
2018-03-21T12:33:45.267Z,1020.5
2018-03-21T12:34:47.159Z,1020.3
2018-03-21T12:35:48.814Z,1020.4
2018-03-21T12:36:50.478Z,1020.3
2018-03-21T12:37:52.378Z,1020.2
2018-03-21T12:38:54.023Z,1020.2
2018-03-21T12:39:55.815Z,1020.3
2018-03-21T12:40:57.675Z,1020.3
2018-03-21T12:41:59.341Z,1020.3
2018-03-21T12:43:00.992Z,1020.2
2018-03-21T12:44:02.829Z,1020.2
2018-03-21T12:45:04.801Z,1020.3
2018-03-21T12:46:06.551Z,1020.3
2018-03-21T12:47:08.371Z,1020.3
2018-03-21T12:48:10.077Z,1020.3
2018-03-21T12:49:11.809Z,1020.3
2018-03-21T12:50:13.659Z,1020.2